sensor_id;sensor_type;location;lat;lon;timestamp;P1;durP1;ratioP1;P2;durP2;ratioP2
62933;SDS011;49038;47.600;19.242;2023-08-06T00:02:05;6.60;;;4.53;;
62933;SDS011;49038;47.600;19.242;2023-08-06T00:05:07;6.25;;;4.30;;
62933;SDS011;49038;47.600;19.242;2023-08-06T00:08:10;6.65;;;4.10;;
62933;SDS011;49038;47.600;19.242;2023-08-06T00:11:12;7.50;;;4.28;;
62933;SDS011;49038;47.600;19.242;2023-08-06T00:14:15;6.35;;;3.90;;
62933;SDS011;49038;47.600;19.242;2023-08-06T00:17:19;8.88;;;4.68;;
62933;SDS011;49038;47.600;19.242;2023-08-06T00:20:21;7.25;;;4.12;;
62933;SDS011;49038;47.600;19.242;2023-08-06T00:23:23;8.73;;;4.40;;
62933;SDS011;49038;47.600;19.242;2023-08-06T00:26:26;4.20;;;3.22;;
62933;SDS011;49038;47.600;19.242;2023-08-06T00:29:28;6.65;;;4.30;;
62933;SDS011;49038;47.600;19.242;2023-08-06T00:32:30;6.55;;;4.07;;
62933;SDS011;49038;47.600;19.242;2023-08-06T00:35:32;5.87;;;4.03;;
62933;SDS011;49038;47.600;19.242;2023-08-06T00:38:35;7.28;;;4.70;;
62933;SDS011;49038;47.600;19.242;2023-08-06T00:41:37;7.97;;;4.60;;
62933;SDS011;49038;47.600;19.242;2023-08-06T00:44:39;6.57;;;4.43;;
62933;SDS011;49038;47.600;19.242;2023-08-06T00:47:42;10.98;;;4.40;;
62933;SDS011;49038;47.600;19.242;2023-08-06T00:50:44;6.30;;;4.35;;
62933;SDS011;49038;47.600;19.242;2023-08-06T00:53:47;8.25;;;4.43;;
62933;SDS011;49038;47.600;19.242;2023-08-06T00:56:50;7.57;;;4.30;;
62933;SDS011;49038;47.600;19.242;2023-08-06T00:59:52;7.87;;;4.75;;
62933;SDS011;49038;47.600;19.242;2023-08-06T01:02:55;6.85;;;4.10;;
62933;SDS011;49038;47.600;19.242;2023-08-06T01:05:58;6.07;;;4.10;;
62933;SDS011;49038;47.600;19.242;2023-08-06T01:09:03;5.82;;;4.03;;
62933;SDS011;49038;47.600;19.242;2023-08-06T01:15:43;5.62;;;3.37;;
62933;SDS011;49038;47.600;19.242;2023-08-06T01:18:48;5.57;;;3.17;;
62933;SDS011;49038;47.600;19.242;2023-08-06T01:21:53;5.15;;;3.67;;
62933;SDS011;49038;47.600;19.242;2023-08-06T01:24:56;3.85;;;3.22;;
62933;SDS011;49038;47.600;19.242;2023-08-06T01:27:59;4.70;;;3.03;;
62933;SDS011;49038;47.600;19.242;2023-08-06T01:31:07;4.85;;;3.67;;
62933;SDS011;49038;47.600;19.242;2023-08-06T01:34:22;5.45;;;3.47;;
62933;SDS011;49038;47.600;19.242;2023-08-06T01:37:26;6.10;;;3.75;;
62933;SDS011;49038;47.600;19.242;2023-08-06T01:40:29;6.30;;;3.80;;
62933;SDS011;49038;47.600;19.242;2023-08-06T01:43:31;6.75;;;3.72;;
62933;SDS011;49038;47.600;19.242;2023-08-06T01:46:34;4.93;;;3.53;;
62933;SDS011;49038;47.600;19.242;2023-08-06T01:49:36;6.35;;;3.80;;
62933;SDS011;49038;47.600;19.242;2023-08-06T01:52:38;6.45;;;3.87;;
62933;SDS011;49038;47.600;19.242;2023-08-06T01:55:40;5.45;;;3.83;;
62933;SDS011;49038;47.600;19.242;2023-08-06T01:58:42;7.68;;;3.78;;
62933;SDS011;49038;47.600;19.242;2023-08-06T02:01:45;6.70;;;3.87;;
62933;SDS011;49038;47.600;19.242;2023-08-06T02:04:47;6.70;;;4.40;;
62933;SDS011;49038;47.600;19.242;2023-08-06T02:07:49;6.57;;;3.83;;
62933;SDS011;49038;47.600;19.242;2023-08-06T02:10:52;6.65;;;3.78;;
62933;SDS011;49038;47.600;19.242;2023-08-06T02:13:54;5.70;;;3.80;;
62933;SDS011;49038;47.600;19.242;2023-08-06T02:16:56;4.03;;;3.08;;
62933;SDS011;49038;47.600;19.242;2023-08-06T02:19:58;3.83;;;2.95;;
62933;SDS011;49038;47.600;19.242;2023-08-06T02:23:01;5.12;;;3.17;;
62933;SDS011;49038;47.600;19.242;2023-08-06T02:26:03;6.20;;;3.00;;
62933;SDS011;49038;47.600;19.242;2023-08-06T02:29:06;4.95;;;3.35;;
62933;SDS011;49038;47.600;19.242;2023-08-06T02:32:08;5.37;;;3.12;;
62933;SDS011;49038;47.600;19.242;2023-08-06T02:35:11;4.50;;;2.42;;
62933;SDS011;49038;47.600;19.242;2023-08-06T02:38:13;5.68;;;2.92;;
62933;SDS011;49038;47.600;19.242;2023-08-06T02:41:15;4.05;;;2.58;;
62933;SDS011;49038;47.600;19.242;2023-08-06T02:44:17;5.12;;;3.15;;
62933;SDS011;49038;47.600;19.242;2023-08-06T02:47:19;7.47;;;2.83;;
62933;SDS011;49038;47.600;19.242;2023-08-06T02:50:22;5.35;;;3.45;;
62933;SDS011;49038;47.600;19.242;2023-08-06T02:53:24;3.95;;;2.83;;
62933;SDS011;49038;47.600;19.242;2023-08-06T02:56:26;3.65;;;2.80;;
62933;SDS011;49038;47.600;19.242;2023-08-06T02:59:28;4.82;;;3.15;;
62933;SDS011;49038;47.600;19.242;2023-08-06T03:02:31;4.10;;;2.67;;
62933;SDS011;49038;47.600;19.242;2023-08-06T03:05:33;2.75;;;1.92;;
62933;SDS011;49038;47.600;19.242;2023-08-06T03:08:35;3.72;;;2.70;;
62933;SDS011;49038;47.600;19.242;2023-08-06T03:11:37;4.95;;;2.75;;
62933;SDS011;49038;47.600;19.242;2023-08-06T03:14:40;2.80;;;2.12;;
62933;SDS011;49038;47.600;19.242;2023-08-06T03:17:42;4.25;;;2.72;;
62933;SDS011;49038;47.600;19.242;2023-08-06T03:20:46;3.08;;;2.42;;
62933;SDS011;49038;47.600;19.242;2023-08-06T03:23:48;3.25;;;2.50;;
62933;SDS011;49038;47.600;19.242;2023-08-06T03:26:50;2.85;;;2.45;;
62933;SDS011;49038;47.600;19.242;2023-08-06T03:29:52;4.10;;;2.47;;
62933;SDS011;49038;47.600;19.242;2023-08-06T03:32:55;3.33;;;2.40;;
62933;SDS011;49038;47.600;19.242;2023-08-06T03:35:57;4.75;;;2.35;;
62933;SDS011;49038;47.600;19.242;2023-08-06T03:38:59;4.22;;;2.50;;
62933;SDS011;49038;47.600;19.242;2023-08-06T03:42:02;5.43;;;2.20;;
62933;SDS011;49038;47.600;19.242;2023-08-06T03:45:04;3.25;;;2.50;;
62933;SDS011;49038;47.600;19.242;2023-08-06T03:48:07;3.05;;;2.20;;
62933;SDS011;49038;47.600;19.242;2023-08-06T03:51:10;4.43;;;3.08;;
62933;SDS011;49038;47.600;19.242;2023-08-06T03:54:12;3.42;;;2.40;;
62933;SDS011;49038;47.600;19.242;2023-08-06T03:57:14;3.58;;;2.45;;
62933;SDS011;49038;47.600;19.242;2023-08-06T04:00:17;3.87;;;2.70;;
62933;SDS011;49038;47.600;19.242;2023-08-06T04:03:20;5.68;;;3.05;;
62933;SDS011;49038;47.600;19.242;2023-08-06T04:06:22;4.75;;;3.25;;
62933;SDS011;49038;47.600;19.242;2023-08-06T04:09:24;5.37;;;3.30;;
62933;SDS011;49038;47.600;19.242;2023-08-06T04:12:27;5.55;;;3.17;;
62933;SDS011;49038;47.600;19.242;2023-08-06T04:15:29;6.50;;;3.30;;
62933;SDS011;49038;47.600;19.242;2023-08-06T04:18:31;6.40;;;3.65;;
62933;SDS011;49038;47.600;19.242;2023-08-06T04:21:34;5.43;;;3.42;;
62933;SDS011;49038;47.600;19.242;2023-08-06T04:24:36;5.22;;;3.47;;
62933;SDS011;49038;47.600;19.242;2023-08-06T04:27:38;6.40;;;3.67;;
62933;SDS011;49038;47.600;19.242;2023-08-06T04:30:43;5.87;;;3.45;;
62933;SDS011;49038;47.600;19.242;2023-08-06T04:33:45;5.97;;;3.87;;
62933;SDS011;49038;47.600;19.242;2023-08-06T04:36:48;5.60;;;3.20;;
62933;SDS011;49038;47.600;19.242;2023-08-06T04:39:50;3.78;;;2.35;;
62933;SDS011;49038;47.600;19.242;2023-08-06T04:42:53;2.92;;;2.00;;
62933;SDS011;49038;47.600;19.242;2023-08-06T04:45:55;5.20;;;2.37;;
62933;SDS011;49038;47.600;19.242;2023-08-06T04:48:58;3.33;;;2.67;;
62933;SDS011;49038;47.600;19.242;2023-08-06T04:52:00;4.30;;;2.28;;
62933;SDS011;49038;47.600;19.242;2023-08-06T04:55:02;4.93;;;2.30;;
62933;SDS011;49038;47.600;19.242;2023-08-06T04:58:09;2.35;;;2.10;;
62933;SDS011;49038;47.600;19.242;2023-08-06T05:01:11;6.07;;;2.17;;
62933;SDS011;49038;47.600;19.242;2023-08-06T05:04:14;5.57;;;2.30;;
62933;SDS011;49038;47.600;19.242;2023-08-06T05:07:16;3.87;;;2.28;;
62933;SDS011;49038;47.600;19.242;2023-08-06T05:10:18;3.60;;;2.03;;
62933;SDS011;49038;47.600;19.242;2023-08-06T05:13:20;3.40;;;1.50;;
62933;SDS011;49038;47.600;19.242;2023-08-06T05:16:23;3.50;;;2.22;;
62933;SDS011;49038;47.600;19.242;2023-08-06T05:19:25;2.55;;;1.80;;
62933;SDS011;49038;47.600;19.242;2023-08-06T05:22:28;2.37;;;1.60;;
62933;SDS011;49038;47.600;19.242;2023-08-06T05:25:30;2.28;;;1.75;;
62933;SDS011;49038;47.600;19.242;2023-08-06T05:28:32;2.17;;;1.60;;
62933;SDS011;49038;47.600;19.242;2023-08-06T05:31:34;2.40;;;1.50;;
62933;SDS011;49038;47.600;19.242;2023-08-06T05:34:37;2.33;;;1.00;;
62933;SDS011;49038;47.600;19.242;2023-08-06T05:37:39;0.88;;;0.60;;
62933;SDS011;49038;47.600;19.242;2023-08-06T05:40:41;0.40;;;0.40;;
62933;SDS011;49038;47.600;19.242;2023-08-06T05:43:44;0.30;;;0.30;;
62933;SDS011;49038;47.600;19.242;2023-08-06T05:46:47;1.62;;;0.40;;
62933;SDS011;49038;47.600;19.242;2023-08-06T05:49:51;0.40;;;0.40;;
62933;SDS011;49038;47.600;19.242;2023-08-06T05:52:53;0.30;;;0.30;;
62933;SDS011;49038;47.600;19.242;2023-08-06T05:55:56;0.40;;;0.40;;
62933;SDS011;49038;47.600;19.242;2023-08-06T05:58:58;0.30;;;0.30;;
62933;SDS011;49038;47.600;19.242;2023-08-06T06:02:00;0.40;;;0.40;;
62933;SDS011;49038;47.600;19.242;2023-08-06T06:05:02;0.85;;;0.50;;
62933;SDS011;49038;47.600;19.242;2023-08-06T06:08:05;0.50;;;0.50;;
62933;SDS011;49038;47.600;19.242;2023-08-06T06:11:07;0.30;;;0.30;;
62933;SDS011;49038;47.600;19.242;2023-08-06T06:14:09;0.40;;;0.40;;
62933;SDS011;49038;47.600;19.242;2023-08-06T06:17:12;1.23;;;0.47;;
62933;SDS011;49038;47.600;19.242;2023-08-06T06:20:14;1.58;;;0.60;;
62933;SDS011;49038;47.600;19.242;2023-08-06T06:23:16;8.35;;;0.60;;
62933;SDS011;49038;47.600;19.242;2023-08-06T06:26:18;0.40;;;0.40;;
62933;SDS011;49038;47.600;19.242;2023-08-06T06:29:21;0.52;;;0.30;;
62933;SDS011;49038;47.600;19.242;2023-08-06T06:32:23;0.55;;;0.40;;
62933;SDS011;49038;47.600;19.242;2023-08-06T06:35:25;0.50;;;0.50;;
62933;SDS011;49038;47.600;19.242;2023-08-06T06:38:28;1.12;;;0.40;;
62933;SDS011;49038;47.600;19.242;2023-08-06T06:41:30;0.30;;;0.30;;
62933;SDS011;49038;47.600;19.242;2023-08-06T06:44:34;0.50;;;0.40;;
62933;SDS011;49038;47.600;19.242;2023-08-06T06:47:37;1.50;;;0.50;;
62933;SDS011;49038;47.600;19.242;2023-08-06T06:50:39;15.25;;;0.75;;
62933;SDS011;49038;47.600;19.242;2023-08-06T06:53:41;1.00;;;0.40;;
62933;SDS011;49038;47.600;19.242;2023-08-06T06:56:43;0.60;;;0.50;;
62933;SDS011;49038;47.600;19.242;2023-08-06T06:59:45;0.40;;;0.40;;
62933;SDS011;49038;47.600;19.242;2023-08-06T07:02:48;0.75;;;0.40;;
62933;SDS011;49038;47.600;19.242;2023-08-06T07:05:50;0.30;;;0.30;;
62933;SDS011;49038;47.600;19.242;2023-08-06T07:08:52;0.40;;;0.40;;
62933;SDS011;49038;47.600;19.242;2023-08-06T07:11:55;0.73;;;0.50;;
62933;SDS011;49038;47.600;19.242;2023-08-06T07:14:57;0.50;;;0.50;;
62933;SDS011;49038;47.600;19.242;2023-08-06T07:18:00;0.50;;;0.50;;
62933;SDS011;49038;47.600;19.242;2023-08-06T07:21:03;0.40;;;0.40;;
62933;SDS011;49038;47.600;19.242;2023-08-06T07:24:05;0.45;;;0.45;;
62933;SDS011;49038;47.600;19.242;2023-08-06T07:27:07;0.50;;;0.50;;
62933;SDS011;49038;47.600;19.242;2023-08-06T07:30:09;0.40;;;0.40;;
62933;SDS011;49038;47.600;19.242;2023-08-06T07:33:13;0.50;;;0.50;;
62933;SDS011;49038;47.600;19.242;2023-08-06T07:36:15;0.40;;;0.40;;
62933;SDS011;49038;47.600;19.242;2023-08-06T07:39:17;0.60;;;0.60;;
62933;SDS011;49038;47.600;19.242;2023-08-06T07:42:20;0.40;;;0.40;;
62933;SDS011;49038;47.600;19.242;2023-08-06T07:45:22;0.40;;;0.40;;
62933;SDS011;49038;47.600;19.242;2023-08-06T07:48:26;0.40;;;0.40;;
62933;SDS011;49038;47.600;19.242;2023-08-06T07:51:28;0.50;;;0.50;;
62933;SDS011;49038;47.600;19.242;2023-08-06T07:54:30;0.40;;;0.40;;
62933;SDS011;49038;47.600;19.242;2023-08-06T07:57:33;0.40;;;0.40;;
62933;SDS011;49038;47.600;19.242;2023-08-06T08:00:36;0.40;;;0.40;;
62933;SDS011;49038;47.600;19.242;2023-08-06T08:03:38;1.08;;;0.50;;
62933;SDS011;49038;47.600;19.242;2023-08-06T08:06:41;0.30;;;0.30;;
62933;SDS011;49038;47.600;19.242;2023-08-06T08:09:43;0.30;;;0.30;;
62933;SDS011;49038;47.600;19.242;2023-08-06T08:12:45;0.30;;;0.30;;
62933;SDS011;49038;47.600;19.242;2023-08-06T08:15:49;0.40;;;0.40;;
62933;SDS011;49038;47.600;19.242;2023-08-06T08:18:51;0.20;;;0.20;;
62933;SDS011;49038;47.600;19.242;2023-08-06T08:21:54;0.28;;;0.28;;
62933;SDS011;49038;47.600;19.242;2023-08-06T08:24:56;0.30;;;0.30;;
62933;SDS011;49038;47.600;19.242;2023-08-06T08:27:59;0.20;;;0.20;;
62933;SDS011;49038;47.600;19.242;2023-08-06T08:31:01;0.22;;;0.22;;
62933;SDS011;49038;47.600;19.242;2023-08-06T08:34:03;0.73;;;0.25;;
62933;SDS011;49038;47.600;19.242;2023-08-06T08:37:05;0.25;;;0.25;;
62933;SDS011;49038;47.600;19.242;2023-08-06T08:40:08;0.22;;;0.22;;
62933;SDS011;49038;47.600;19.242;2023-08-06T08:43:10;0.30;;;0.30;;
62933;SDS011;49038;47.600;19.242;2023-08-06T08:46:13;0.43;;;0.35;;
62933;SDS011;49038;47.600;19.242;2023-08-06T08:49:16;0.30;;;0.30;;
62933;SDS011;49038;47.600;19.242;2023-08-06T08:52:18;0.20;;;0.20;;
62933;SDS011;49038;47.600;19.242;2023-08-06T08:55:22;0.30;;;0.30;;
62933;SDS011;49038;47.600;19.242;2023-08-06T08:58:25;0.20;;;0.20;;
62933;SDS011;49038;47.600;19.242;2023-08-06T09:01:27;0.20;;;0.20;;
62933;SDS011;49038;47.600;19.242;2023-08-06T09:04:30;0.30;;;0.30;;
62933;SDS011;49038;47.600;19.242;2023-08-06T09:07:43;0.37;;;0.25;;
62933;SDS011;49038;47.600;19.242;2023-08-06T09:10:49;0.30;;;0.30;;
62933;SDS011;49038;47.600;19.242;2023-08-06T09:13:51;0.30;;;0.30;;
62933;SDS011;49038;47.600;19.242;2023-08-06T09:16:56;0.77;;;0.43;;
62933;SDS011;49038;47.600;19.242;2023-08-06T09:20:08;1.98;;;0.30;;
62933;SDS011;49038;47.600;19.242;2023-08-06T09:23:11;0.35;;;0.30;;
62933;SDS011;49038;47.600;19.242;2023-08-06T09:26:13;0.30;;;0.30;;
62933;SDS011;49038;47.600;19.242;2023-08-06T09:29:17;4.07;;;0.40;;
62933;SDS011;49038;47.600;19.242;2023-08-06T09:32:20;0.28;;;0.28;;
62933;SDS011;49038;47.600;19.242;2023-08-06T09:35:22;0.30;;;0.30;;
62933;SDS011;49038;47.600;19.242;2023-08-06T09:38:25;0.40;;;0.40;;
62933;SDS011;49038;47.600;19.242;2023-08-06T09:41:27;0.35;;;0.20;;
62933;SDS011;49038;47.600;19.242;2023-08-06T09:44:31;0.40;;;0.40;;
62933;SDS011;49038;47.600;19.242;2023-08-06T09:47:36;0.30;;;0.30;;
62933;SDS011;49038;47.600;19.242;2023-08-06T09:50:38;0.30;;;0.30;;
62933;SDS011;49038;47.600;19.242;2023-08-06T09:53:42;0.70;;;0.50;;
62933;SDS011;49038;47.600;19.242;2023-08-06T09:56:44;0.30;;;0.30;;
62933;SDS011;49038;47.600;19.242;2023-08-06T09:59:46;0.50;;;0.50;;
62933;SDS011;49038;47.600;19.242;2023-08-06T10:02:49;0.40;;;0.40;;
62933;SDS011;49038;47.600;19.242;2023-08-06T10:05:55;0.30;;;0.30;;
62933;SDS011;49038;47.600;19.242;2023-08-06T10:08:58;0.30;;;0.30;;
62933;SDS011;49038;47.600;19.242;2023-08-06T10:12:01;3.40;;;0.68;;
62933;SDS011;49038;47.600;19.242;2023-08-06T10:15:04;0.40;;;0.40;;
62933;SDS011;49038;47.600;19.242;2023-08-06T10:18:09;0.40;;;0.40;;
62933;SDS011;49038;47.600;19.242;2023-08-06T10:21:12;0.30;;;0.30;;
62933;SDS011;49038;47.600;19.242;2023-08-06T10:24:15;0.22;;;0.22;;
62933;SDS011;49038;47.600;19.242;2023-08-06T10:30:43;0.40;;;0.40;;
62933;SDS011;49038;47.600;19.242;2023-08-06T10:33:47;0.55;;;0.55;;
62933;SDS011;49038;47.600;19.242;2023-08-06T10:36:49;0.40;;;0.40;;
62933;SDS011;49038;47.600;19.242;2023-08-06T10:39:52;0.47;;;0.40;;
62933;SDS011;49038;47.600;19.242;2023-08-06T10:42:54;0.50;;;0.30;;
62933;SDS011;49038;47.600;19.242;2023-08-06T10:45:57;0.40;;;0.40;;
62933;SDS011;49038;47.600;19.242;2023-08-06T10:49:00;0.43;;;0.43;;
62933;SDS011;49038;47.600;19.242;2023-08-06T10:52:03;0.30;;;0.30;;
62933;SDS011;49038;47.600;19.242;2023-08-06T10:55:05;0.50;;;0.40;;
62933;SDS011;49038;47.600;19.242;2023-08-06T10:58:08;0.40;;;0.40;;
62933;SDS011;49038;47.600;19.242;2023-08-06T11:01:10;0.35;;;0.35;;
62933;SDS011;49038;47.600;19.242;2023-08-06T11:04:13;0.40;;;0.40;;
62933;SDS011;49038;47.600;19.242;2023-08-06T11:07:18;0.30;;;0.30;;
62933;SDS011;49038;47.600;19.242;2023-08-06T11:10:23;0.90;;;0.40;;
62933;SDS011;49038;47.600;19.242;2023-08-06T11:13:25;0.43;;;0.43;;
62933;SDS011;49038;47.600;19.242;2023-08-06T11:16:28;0.40;;;0.40;;
62933;SDS011;49038;47.600;19.242;2023-08-06T11:19:31;0.40;;;0.40;;
62933;SDS011;49038;47.600;19.242;2023-08-06T11:22:33;0.40;;;0.40;;
62933;SDS011;49038;47.600;19.242;2023-08-06T11:25:36;0.40;;;0.40;;
62933;SDS011;49038;47.600;19.242;2023-08-06T11:28:39;0.90;;;0.50;;
62933;SDS011;49038;47.600;19.242;2023-08-06T11:31:42;0.40;;;0.40;;
62933;SDS011;49038;47.600;19.242;2023-08-06T11:34:44;0.88;;;0.52;;
62933;SDS011;49038;47.600;19.242;2023-08-06T11:37:46;0.55;;;0.45;;
62933;SDS011;49038;47.600;19.242;2023-08-06T11:40:49;1.05;;;0.50;;
62933;SDS011;49038;47.600;19.242;2023-08-06T11:43:52;1.42;;;0.40;;
62933;SDS011;49038;47.600;19.242;2023-08-06T11:46:55;0.45;;;0.45;;
62933;SDS011;49038;47.600;19.242;2023-08-06T11:49:58;0.50;;;0.50;;
62933;SDS011;49038;47.600;19.242;2023-08-06T11:53:00;0.43;;;0.43;;
62933;SDS011;49038;47.600;19.242;2023-08-06T11:56:03;0.57;;;0.43;;
62933;SDS011;49038;47.600;19.242;2023-08-06T11:59:05;1.90;;;0.37;;
62933;SDS011;49038;47.600;19.242;2023-08-06T12:02:09;0.30;;;0.30;;
62933;SDS011;49038;47.600;19.242;2023-08-06T12:08:15;0.50;;;0.50;;
62933;SDS011;49038;47.600;19.242;2023-08-06T12:11:20;0.40;;;0.40;;
62933;SDS011;49038;47.600;19.242;2023-08-06T12:14:23;0.57;;;0.40;;
62933;SDS011;49038;47.600;19.242;2023-08-06T12:17:26;0.60;;;0.40;;
62933;SDS011;49038;47.600;19.242;2023-08-06T12:20:28;0.40;;;0.40;;
62933;SDS011;49038;47.600;19.242;2023-08-06T12:23:31;0.30;;;0.30;;
62933;SDS011;49038;47.600;19.242;2023-08-06T12:26:35;0.30;;;0.30;;
62933;SDS011;49038;47.600;19.242;2023-08-06T12:29:47;0.30;;;0.30;;
62933;SDS011;49038;47.600;19.242;2023-08-06T12:32:50;0.40;;;0.40;;
62933;SDS011;49038;47.600;19.242;2023-08-06T12:35:53;0.60;;;0.35;;
62933;SDS011;49038;47.600;19.242;2023-08-06T12:38:57;0.40;;;0.40;;
62933;SDS011;49038;47.600;19.242;2023-08-06T12:41:59;0.60;;;0.60;;
62933;SDS011;49038;47.600;19.242;2023-08-06T12:45:10;0.40;;;0.40;;
62933;SDS011;49038;47.600;19.242;2023-08-06T12:48:12;0.88;;;0.40;;
62933;SDS011;49038;47.600;19.242;2023-08-06T12:51:16;0.50;;;0.47;;
62933;SDS011;49038;47.600;19.242;2023-08-06T12:54:22;0.40;;;0.40;;
62933;SDS011;49038;47.600;19.242;2023-08-06T12:57:24;0.50;;;0.50;;
62933;SDS011;49038;47.600;19.242;2023-08-06T13:00:37;1.75;;;0.37;;
62933;SDS011;49038;47.600;19.242;2023-08-06T13:03:39;0.30;;;0.30;;
62933;SDS011;49038;47.600;19.242;2023-08-06T13:06:42;0.50;;;0.45;;
62933;SDS011;49038;47.600;19.242;2023-08-06T13:09:44;0.40;;;0.40;;
62933;SDS011;49038;47.600;19.242;2023-08-06T13:12:46;0.75;;;0.43;;
62933;SDS011;49038;47.600;19.242;2023-08-06T13:15:48;1.17;;;0.55;;
62933;SDS011;49038;47.600;19.242;2023-08-06T13:18:51;0.62;;;0.50;;
62933;SDS011;49038;47.600;19.242;2023-08-06T13:22:00;0.50;;;0.50;;
62933;SDS011;49038;47.600;19.242;2023-08-06T13:25:04;0.50;;;0.50;;
62933;SDS011;49038;47.600;19.242;2023-08-06T13:28:06;0.52;;;0.45;;
62933;SDS011;49038;47.600;19.242;2023-08-06T13:31:08;1.58;;;0.40;;
62933;SDS011;49038;47.600;19.242;2023-08-06T13:34:11;0.50;;;0.50;;
62933;SDS011;49038;47.600;19.242;2023-08-06T13:37:13;0.50;;;0.50;;
62933;SDS011;49038;47.600;19.242;2023-08-06T13:40:15;0.50;;;0.50;;
62933;SDS011;49038;47.600;19.242;2023-08-06T13:43:17;0.75;;;0.60;;
62933;SDS011;49038;47.600;19.242;2023-08-06T13:46:21;0.40;;;0.40;;
62933;SDS011;49038;47.600;19.242;2023-08-06T13:49:23;1.30;;;0.60;;
62933;SDS011;49038;47.600;19.242;2023-08-06T13:52:25;0.60;;;0.60;;
62933;SDS011;49038;47.600;19.242;2023-08-06T13:55:28;0.52;;;0.52;;
62933;SDS011;49038;47.600;19.242;2023-08-06T13:58:30;0.55;;;0.55;;
62933;SDS011;49038;47.600;19.242;2023-08-06T14:01:33;1.95;;;0.60;;
62933;SDS011;49038;47.600;19.242;2023-08-06T14:04:52;0.73;;;0.60;;
62933;SDS011;49038;47.600;19.242;2023-08-06T14:07:55;0.55;;;0.50;;
62933;SDS011;49038;47.600;19.242;2023-08-06T14:10:57;0.60;;;0.50;;
62933;SDS011;49038;47.600;19.242;2023-08-06T14:13:59;0.57;;;0.57;;
62933;SDS011;49038;47.600;19.242;2023-08-06T14:17:05;0.50;;;0.50;;
62933;SDS011;49038;47.600;19.242;2023-08-06T14:20:08;0.65;;;0.65;;
62933;SDS011;49038;47.600;19.242;2023-08-06T14:23:13;0.88;;;0.70;;
62933;SDS011;49038;47.600;19.242;2023-08-06T14:26:15;1.77;;;0.80;;
62933;SDS011;49038;47.600;19.242;2023-08-06T14:29:19;0.68;;;0.68;;
62933;SDS011;49038;47.600;19.242;2023-08-06T14:32:21;1.60;;;0.77;;
62933;SDS011;49038;47.600;19.242;2023-08-06T14:35:23;0.60;;;0.60;;
62933;SDS011;49038;47.600;19.242;2023-08-06T14:38:26;0.52;;;0.52;;
62933;SDS011;49038;47.600;19.242;2023-08-06T14:41:28;0.50;;;0.50;;
62933;SDS011;49038;47.600;19.242;2023-08-06T14:44:30;0.60;;;0.60;;
62933;SDS011;49038;47.600;19.242;2023-08-06T14:47:33;1.00;;;0.90;;
62933;SDS011;49038;47.600;19.242;2023-08-06T14:50:35;0.85;;;0.70;;
62933;SDS011;49038;47.600;19.242;2023-08-06T14:53:38;1.98;;;0.60;;
62933;SDS011;49038;47.600;19.242;2023-08-06T14:56:41;0.60;;;0.60;;
62933;SDS011;49038;47.600;19.242;2023-08-06T14:59:43;4.07;;;0.90;;
62933;SDS011;49038;47.600;19.242;2023-08-06T15:02:46;0.88;;;0.70;;
62933;SDS011;49038;47.600;19.242;2023-08-06T15:05:48;0.95;;;0.70;;
62933;SDS011;49038;47.600;19.242;2023-08-06T15:08:51;0.70;;;0.70;;
62933;SDS011;49038;47.600;19.242;2023-08-06T15:11:59;0.60;;;0.60;;
62933;SDS011;49038;47.600;19.242;2023-08-06T15:15:02;1.10;;;0.80;;
62933;SDS011;49038;47.600;19.242;2023-08-06T15:18:04;1.12;;;0.80;;
62933;SDS011;49038;47.600;19.242;2023-08-06T15:21:06;0.70;;;0.70;;
62933;SDS011;49038;47.600;19.242;2023-08-06T15:24:09;0.80;;;0.80;;
62933;SDS011;49038;47.600;19.242;2023-08-06T15:27:11;0.75;;;0.75;;
62933;SDS011;49038;47.600;19.242;2023-08-06T15:30:14;1.25;;;0.98;;
62933;SDS011;49038;47.600;19.242;2023-08-06T15:33:17;0.75;;;0.75;;
62933;SDS011;49038;47.600;19.242;2023-08-06T15:36:20;1.30;;;1.05;;
62933;SDS011;49038;47.600;19.242;2023-08-06T15:39:22;0.82;;;0.82;;
62933;SDS011;49038;47.600;19.242;2023-08-06T15:42:24;0.80;;;0.80;;
62933;SDS011;49038;47.600;19.242;2023-08-06T15:45:27;0.73;;;0.68;;
62933;SDS011;49038;47.600;19.242;2023-08-06T15:48:29;1.27;;;0.85;;
62933;SDS011;49038;47.600;19.242;2023-08-06T15:51:31;1.15;;;1.00;;
62933;SDS011;49038;47.600;19.242;2023-08-06T15:54:33;1.08;;;0.85;;
62933;SDS011;49038;47.600;19.242;2023-08-06T15:57:36;1.15;;;0.80;;
62933;SDS011;49038;47.600;19.242;2023-08-06T16:00:38;0.80;;;0.80;;
62933;SDS011;49038;47.600;19.242;2023-08-06T16:03:40;1.30;;;1.10;;
62933;SDS011;49038;47.600;19.242;2023-08-06T16:06:45;0.80;;;0.80;;
62933;SDS011;49038;47.600;19.242;2023-08-06T16:09:47;0.77;;;0.77;;
62933;SDS011;49038;47.600;19.242;2023-08-06T16:12:49;1.87;;;0.90;;
62933;SDS011;49038;47.600;19.242;2023-08-06T16:15:52;1.25;;;0.90;;
62933;SDS011;49038;47.600;19.242;2023-08-06T16:18:54;1.17;;;0.82;;
62933;SDS011;49038;47.600;19.242;2023-08-06T16:21:56;1.08;;;1.00;;
62933;SDS011;49038;47.600;19.242;2023-08-06T16:24:58;0.68;;;0.65;;
62933;SDS011;49038;47.600;19.242;2023-08-06T16:28:01;0.82;;;0.82;;
62933;SDS011;49038;47.600;19.242;2023-08-06T16:31:03;0.70;;;0.70;;
62933;SDS011;49038;47.600;19.242;2023-08-06T16:34:05;0.80;;;0.80;;
62933;SDS011;49038;47.600;19.242;2023-08-06T16:37:07;2.47;;;1.00;;
62933;SDS011;49038;47.600;19.242;2023-08-06T16:40:10;1.08;;;0.90;;
62933;SDS011;49038;47.600;19.242;2023-08-06T16:43:12;0.82;;;0.75;;
62933;SDS011;49038;47.600;19.242;2023-08-06T16:46:14;1.10;;;1.00;;
62933;SDS011;49038;47.600;19.242;2023-08-06T16:49:17;2.45;;;1.25;;
62933;SDS011;49038;47.600;19.242;2023-08-06T16:52:20;0.95;;;0.95;;
62933;SDS011;49038;47.600;19.242;2023-08-06T16:55:22;0.90;;;0.80;;
62933;SDS011;49038;47.600;19.242;2023-08-06T16:58:25;0.98;;;0.75;;
62933;SDS011;49038;47.600;19.242;2023-08-06T17:01:28;1.95;;;0.88;;
62933;SDS011;49038;47.600;19.242;2023-08-06T17:04:30;1.02;;;0.90;;
62933;SDS011;49038;47.600;19.242;2023-08-06T17:07:33;0.95;;;0.77;;
62933;SDS011;49038;47.600;19.242;2023-08-06T17:10:35;0.68;;;0.68;;
62933;SDS011;49038;47.600;19.242;2023-08-06T17:13:38;0.98;;;0.80;;
62933;SDS011;49038;47.600;19.242;2023-08-06T17:16:40;0.77;;;0.77;;
62933;SDS011;49038;47.600;19.242;2023-08-06T17:19:42;0.70;;;0.70;;
62933;SDS011;49038;47.600;19.242;2023-08-06T17:22:45;1.48;;;0.95;;
62933;SDS011;49038;47.600;19.242;2023-08-06T17:25:47;1.20;;;0.62;;
62933;SDS011;49038;47.600;19.242;2023-08-06T17:28:49;1.08;;;0.70;;
62933;SDS011;49038;47.600;19.242;2023-08-06T17:31:52;1.00;;;0.90;;
62933;SDS011;49038;47.600;19.242;2023-08-06T17:34:54;1.33;;;0.90;;
62933;SDS011;49038;47.600;19.242;2023-08-06T17:37:57;0.80;;;0.80;;
62933;SDS011;49038;47.600;19.242;2023-08-06T17:41:01;1.48;;;1.00;;
62933;SDS011;49038;47.600;19.242;2023-08-06T17:44:06;0.80;;;0.80;;
62933;SDS011;49038;47.600;19.242;2023-08-06T17:47:08;0.62;;;0.62;;
62933;SDS011;49038;47.600;19.242;2023-08-06T17:50:24;0.70;;;0.70;;
62933;SDS011;49038;47.600;19.242;2023-08-06T17:53:26;0.75;;;0.75;;
62933;SDS011;49038;47.600;19.242;2023-08-06T17:56:28;0.80;;;0.80;;
62933;SDS011;49038;47.600;19.242;2023-08-06T17:59:31;0.98;;;0.88;;
62933;SDS011;49038;47.600;19.242;2023-08-06T18:02:33;1.02;;;0.80;;
62933;SDS011;49038;47.600;19.242;2023-08-06T18:05:35;1.67;;;0.90;;
62933;SDS011;49038;47.600;19.242;2023-08-06T18:08:39;1.02;;;0.80;;
62933;SDS011;49038;47.600;19.242;2023-08-06T18:11:41;0.70;;;0.70;;
62933;SDS011;49038;47.600;19.242;2023-08-06T18:14:44;1.10;;;1.00;;